createdAt,value
2017-08-06T00:00:11.166Z,12.79
2017-08-06T00:01:11.127Z,12.79
2017-08-06T00:02:11.199Z,12.83
2017-08-06T00:03:11.134Z,12.83
2017-08-06T00:04:11.127Z,12.83
2017-08-06T00:05:11.128Z,12.83
2017-08-06T00:06:11.160Z,12.84
2017-08-06T00:07:11.129Z,12.83
2017-08-06T00:08:11.163Z,12.82
2017-08-06T00:09:11.157Z,12.87
2017-08-06T00:10:11.198Z,12.89
2017-08-06T00:11:11.130Z,12.89
2017-08-06T00:12:11.195Z,12.87
2017-08-06T00:13:11.135Z,12.87
2017-08-06T00:14:11.160Z,12.89
2017-08-06T00:15:11.135Z,12.87
2017-08-06T00:16:11.134Z,12.89
2017-08-06T00:17:11.139Z,12.89
2017-08-06T00:18:11.201Z,12.92
2017-08-06T00:19:11.160Z,12.89
2017-08-06T00:20:11.139Z,12.91
2017-08-06T00:21:11.213Z,12.91
2017-08-06T00:22:11.183Z,12.91
2017-08-06T00:23:11.182Z,12.89
2017-08-06T00:24:11.157Z,12.87
2017-08-06T00:25:11.188Z,12.87
2017-08-06T00:26:11.239Z,12.91
2017-08-06T00:27:11.220Z,12.87
2017-08-06T00:28:11.217Z,12.84
2017-08-06T00:29:11.170Z,12.84
2017-08-06T00:30:11.186Z,12.86
2017-08-06T00:31:11.150Z,12.84
2017-08-06T00:32:11.250Z,12.83
2017-08-06T00:33:11.205Z,12.82
2017-08-06T00:34:11.151Z,12.80
2017-08-06T00:35:11.242Z,12.79
2017-08-06T00:36:11.249Z,12.80
2017-08-06T00:37:11.244Z,12.80
2017-08-06T00:38:11.223Z,12.79
2017-08-06T00:39:11.184Z,12.82
2017-08-06T00:40:11.215Z,12.83
2017-08-06T00:41:11.210Z,12.86
2017-08-06T00:42:11.211Z,12.86
2017-08-06T00:43:11.147Z,12.84
2017-08-06T00:44:11.155Z,12.86
2017-08-06T00:45:11.212Z,12.89
2017-08-06T00:46:11.151Z,12.91
2017-08-06T00:47:11.215Z,12.94
2017-08-06T00:48:11.152Z,12.91
2017-08-06T00:49:11.215Z,12.89
2017-08-06T00:50:11.221Z,12.89
2017-08-06T00:51:11.163Z,12.87
2017-08-06T00:52:11.116Z,12.84
2017-08-06T00:53:11.159Z,12.84
2017-08-06T00:54:11.199Z,12.82
2017-08-06T00:55:11.160Z,12.82
2017-08-06T00:56:11.167Z,12.82
2017-08-06T00:57:11.161Z,12.82
2017-08-06T00:58:11.161Z,12.82
2017-08-06T00:59:11.184Z,12.82
2017-08-06T01:00:11.234Z,12.82
2017-08-06T01:01:11.161Z,12.80
2017-08-06T01:02:11.186Z,12.79
2017-08-06T01:03:11.160Z,12.77
2017-08-06T01:04:11.225Z,12.75
2017-08-06T01:05:11.190Z,12.71
2017-08-06T01:06:11.192Z,12.66
2017-08-06T01:07:11.227Z,12.64
2017-08-06T01:08:11.164Z,12.61
2017-08-06T01:09:11.192Z,12.58
2017-08-06T01:10:11.166Z,12.55
2017-08-06T01:11:11.240Z,12.53
2017-08-06T01:12:11.245Z,12.51
2017-08-06T01:13:11.276Z,12.48
2017-08-06T01:14:11.233Z,12.48
2017-08-06T01:15:11.176Z,12.47
2017-08-06T01:16:11.244Z,12.43
2017-08-06T01:17:11.178Z,12.40
2017-08-06T01:18:11.176Z,12.37
2017-08-06T01:19:11.204Z,12.37
2017-08-06T01:20:11.245Z,12.37
2017-08-06T01:21:11.215Z,12.36
2017-08-06T01:22:11.178Z,12.33
2017-08-06T01:23:11.226Z,12.31
2017-08-06T01:24:11.181Z,12.26
2017-08-06T01:25:11.248Z,12.25
2017-08-06T01:26:11.254Z,12.25
2017-08-06T01:27:11.281Z,12.28
2017-08-06T01:28:11.207Z,12.29
2017-08-06T01:29:11.216Z,12.28
2017-08-06T01:30:11.214Z,12.29
2017-08-06T01:31:11.255Z,12.32
2017-08-06T01:32:11.193Z,12.31
2017-08-06T01:33:11.284Z,12.31
2017-08-06T01:34:11.285Z,12.32
2017-08-06T01:35:11.262Z,12.33
2017-08-06T01:36:11.244Z,12.33
2017-08-06T01:37:11.198Z,12.33
2017-08-06T01:38:11.190Z,12.31
2017-08-06T01:39:11.261Z,12.31
2017-08-06T01:40:11.292Z,12.31
2017-08-06T01:41:11.227Z,12.29
2017-08-06T01:42:11.329Z,12.28
2017-08-06T01:43:11.213Z,12.26
2017-08-06T01:44:11.251Z,12.26
2017-08-06T01:45:11.261Z,12.24
2017-08-06T01:46:11.249Z,12.25
2017-08-06T01:47:11.215Z,12.25
2017-08-06T01:48:11.191Z,12.25
2017-08-06T01:49:11.217Z,12.26
2017-08-06T01:50:11.223Z,12.28
2017-08-06T01:51:11.218Z,12.28
2017-08-06T01:52:11.194Z,12.26
2017-08-06T01:53:11.255Z,12.26
2017-08-06T01:54:11.217Z,12.26
2017-08-06T01:55:11.190Z,12.26
2017-08-06T01:56:11.220Z,12.26
2017-08-06T01:57:11.193Z,12.28
2017-08-06T01:58:11.193Z,12.29
2017-08-06T01:59:11.220Z,12.29
2017-08-06T02:00:11.292Z,12.31
2017-08-06T02:01:11.195Z,12.31
2017-08-06T02:02:11.264Z,12.31
2017-08-06T02:03:11.241Z,12.31
2017-08-06T02:04:11.234Z,12.29
2017-08-06T02:05:11.274Z,12.29
2017-08-06T02:06:11.206Z,12.28
2017-08-06T02:07:11.271Z,12.28
2017-08-06T02:08:11.209Z,12.28
2017-08-06T02:09:11.261Z,12.28
2017-08-06T02:10:11.235Z,12.28
2017-08-06T02:11:11.232Z,12.28
2017-08-06T02:12:11.209Z,12.28
2017-08-06T02:13:11.270Z,12.28
2017-08-06T02:14:11.304Z,12.29
2017-08-06T02:15:11.245Z,12.31
2017-08-06T02:16:11.211Z,12.31
2017-08-06T02:17:11.240Z,12.32
2017-08-06T02:18:11.214Z,12.35
2017-08-06T02:19:11.213Z,12.33
2017-08-06T02:20:11.281Z,12.35
2017-08-06T02:21:11.274Z,12.36
2017-08-06T02:22:11.210Z,12.35
2017-08-06T02:23:11.234Z,12.36
2017-08-06T02:24:11.230Z,12.36
2017-08-06T02:25:11.210Z,12.36
2017-08-06T02:26:11.216Z,12.36
2017-08-06T02:27:11.238Z,12.36
2017-08-06T02:28:11.239Z,12.35
2017-08-06T02:29:11.241Z,12.31
2017-08-06T02:30:11.171Z,12.28
2017-08-06T02:31:11.189Z,12.25
2017-08-06T02:32:11.203Z,12.24
2017-08-06T02:33:11.248Z,12.22
2017-08-06T02:34:11.283Z,12.20
2017-08-06T02:35:11.225Z,12.18
2017-08-06T02:36:11.203Z,12.16
2017-08-06T02:37:11.367Z,12.14
2017-08-06T02:38:11.222Z,12.18
2017-08-06T02:39:11.178Z,12.14
2017-08-06T02:40:11.246Z,12.14
2017-08-06T02:41:11.250Z,12.14
2017-08-06T02:42:11.262Z,12.14
2017-08-06T02:43:11.263Z,12.16
2017-08-06T02:44:11.250Z,12.18
2017-08-06T02:45:11.228Z,12.20
2017-08-06T02:46:11.302Z,12.18
2017-08-06T02:47:11.327Z,12.20
2017-08-06T02:48:11.288Z,12.18
2017-08-06T02:49:11.231Z,12.14
2017-08-06T02:50:11.236Z,12.20
2017-08-06T02:51:11.302Z,12.22
2017-08-06T02:52:11.275Z,12.28
2017-08-06T02:53:11.243Z,12.29
2017-08-06T02:54:11.289Z,12.31
2017-08-06T02:55:11.333Z,12.32
2017-08-06T02:56:11.262Z,12.33
2017-08-06T02:57:11.327Z,12.33
2017-08-06T02:58:11.244Z,12.32
2017-08-06T02:59:11.297Z,12.33
2017-08-06T03:00:11.303Z,12.33
2017-08-06T03:01:11.310Z,12.31
2017-08-06T03:02:11.236Z,12.32
2017-08-06T03:03:11.296Z,12.33
2017-08-06T03:04:11.232Z,12.35
2017-08-06T03:05:11.300Z,12.37
2017-08-06T03:06:11.299Z,12.39
2017-08-06T03:07:11.297Z,12.43
2017-08-06T03:08:11.251Z,12.43
2017-08-06T03:09:11.240Z,12.43
2017-08-06T03:10:11.298Z,12.43
2017-08-06T03:11:11.303Z,12.43
2017-08-06T03:12:11.334Z,12.42
2017-08-06T03:13:11.319Z,12.42
2017-08-06T03:14:11.304Z,12.42
2017-08-06T03:15:11.318Z,12.43
2017-08-06T03:16:11.339Z,12.40
2017-08-06T03:17:11.315Z,12.39
2017-08-06T03:18:11.275Z,12.39
2017-08-06T03:19:11.255Z,12.42
2017-08-06T03:20:11.353Z,12.43
2017-08-06T03:21:11.336Z,12.42
2017-08-06T03:22:11.252Z,12.43
2017-08-06T03:23:11.249Z,12.42
2017-08-06T03:24:11.342Z,12.42
2017-08-06T03:25:11.255Z,12.37
2017-08-06T03:26:11.309Z,12.36
2017-08-06T03:27:11.343Z,12.32
2017-08-06T03:28:11.289Z,12.25
2017-08-06T03:29:11.280Z,12.18
2017-08-06T03:30:11.361Z,12.12
2017-08-06T03:31:11.353Z,12.09
2017-08-06T03:32:11.317Z,12.14
2017-08-06T03:33:11.255Z,12.16
2017-08-06T03:34:11.315Z,12.12
2017-08-06T03:35:11.314Z,12.06
2017-08-06T03:36:11.322Z,12.01
2017-08-06T03:37:11.281Z,11.94
2017-08-06T03:38:11.262Z,11.91
2017-08-06T03:39:11.258Z,11.84
2017-08-06T03:40:11.323Z,11.80
2017-08-06T03:41:11.258Z,11.76
2017-08-06T03:42:11.293Z,11.73
2017-08-06T03:43:11.367Z,11.71
2017-08-06T03:44:11.322Z,11.68
2017-08-06T03:45:11.333Z,11.67
2017-08-06T03:46:11.267Z,11.67
2017-08-06T03:47:11.381Z,11.67
2017-08-06T03:48:11.358Z,11.68
2017-08-06T03:49:11.292Z,11.68
2017-08-06T03:50:11.306Z,11.69
2017-08-06T03:51:11.337Z,11.68
2017-08-06T03:52:11.291Z,11.67
2017-08-06T03:53:11.290Z,11.65
2017-08-06T03:54:11.267Z,11.61
2017-08-06T03:55:11.329Z,11.61
2017-08-06T03:56:11.292Z,11.60
2017-08-06T03:57:11.330Z,11.58
2017-08-06T03:58:11.265Z,11.57
2017-08-06T03:59:11.294Z,11.54
2017-08-06T04:00:11.333Z,11.53
2017-08-06T04:01:11.296Z,11.50
2017-08-06T04:02:11.284Z,11.50
2017-08-06T04:03:11.210Z,11.49
2017-08-06T04:04:11.286Z,11.47
2017-08-06T04:05:11.277Z,11.47
2017-08-06T04:06:11.262Z,11.49
2017-08-06T04:07:11.288Z,11.47
2017-08-06T04:08:11.220Z,11.46
2017-08-06T04:09:11.295Z,11.46
2017-08-06T04:10:11.281Z,11.49
2017-08-06T04:11:11.221Z,11.53
2017-08-06T04:12:11.314Z,11.54
2017-08-06T04:13:11.312Z,11.57
2017-08-06T04:14:11.368Z,11.57
2017-08-06T04:15:11.353Z,11.60
2017-08-06T04:16:11.319Z,11.60
2017-08-06T04:17:11.379Z,11.58
2017-08-06T04:18:11.288Z,11.62
2017-08-06T04:19:11.282Z,11.65
2017-08-06T04:20:11.291Z,11.67
2017-08-06T04:21:11.288Z,11.67
2017-08-06T04:22:11.342Z,11.69
2017-08-06T04:23:11.297Z,11.71
2017-08-06T04:24:11.302Z,11.76
2017-08-06T04:25:11.272Z,11.82
2017-08-06T04:26:11.272Z,11.87
2017-08-06T04:27:11.225Z,11.91
2017-08-06T04:28:11.302Z,11.92
2017-08-06T04:29:11.286Z,11.95
2017-08-06T04:30:11.302Z,11.99
2017-08-06T04:31:11.341Z,12.02
2017-08-06T04:32:11.353Z,12.06
2017-08-06T04:33:11.351Z,12.06
2017-08-06T04:34:11.286Z,12.08
2017-08-06T04:35:11.284Z,12.09
2017-08-06T04:36:11.280Z,12.10
2017-08-06T04:37:11.286Z,12.13
2017-08-06T04:38:11.284Z,12.14
2017-08-06T04:39:11.316Z,12.18
2017-08-06T04:40:11.352Z,12.24
2017-08-06T04:41:11.316Z,12.28
2017-08-06T04:42:11.320Z,12.31
2017-08-06T04:43:11.318Z,12.35
2017-08-06T04:44:11.294Z,12.36
2017-08-06T04:45:11.323Z,12.37
2017-08-06T04:46:11.355Z,12.42
2017-08-06T04:47:11.355Z,12.42
2017-08-06T04:48:11.321Z,12.44
2017-08-06T04:49:11.322Z,12.44
2017-08-06T04:50:11.383Z,12.47
2017-08-06T04:51:11.354Z,12.50
2017-08-06T04:52:11.298Z,12.51
2017-08-06T04:53:11.290Z,12.51
2017-08-06T04:54:11.385Z,12.53
2017-08-06T04:55:11.293Z,12.54
2017-08-06T04:56:11.325Z,12.57
2017-08-06T04:57:11.301Z,12.58
2017-08-06T04:58:11.309Z,12.61
2017-08-06T04:59:11.324Z,12.64
2017-08-06T05:00:11.301Z,12.64
2017-08-06T05:01:11.357Z,12.64
2017-08-06T05:02:11.325Z,12.68
2017-08-06T05:03:11.323Z,12.69
2017-08-06T05:04:11.363Z,12.71
2017-08-06T05:05:11.329Z,12.73
2017-08-06T05:06:11.368Z,12.71
2017-08-06T05:07:11.302Z,12.71
2017-08-06T05:08:11.310Z,12.73
2017-08-06T05:09:11.361Z,12.76
2017-08-06T05:10:11.331Z,12.79
2017-08-06T05:11:11.369Z,12.84
2017-08-06T05:12:11.383Z,12.87
2017-08-06T05:13:11.352Z,12.91
2017-08-06T05:14:11.315Z,12.96
2017-08-06T05:15:11.355Z,13.03
2017-08-06T05:16:11.383Z,13.09
2017-08-06T05:17:11.415Z,13.14
2017-08-06T05:18:11.316Z,13.18
2017-08-06T05:19:11.376Z,13.21
2017-08-06T05:20:11.420Z,13.25
2017-08-06T05:21:11.387Z,13.28
2017-08-06T05:22:11.358Z,13.32
2017-08-06T05:23:11.347Z,13.34
2017-08-06T05:24:11.326Z,13.39
2017-08-06T05:25:11.359Z,13.42
2017-08-06T05:26:11.392Z,13.42
2017-08-06T05:27:11.356Z,13.42
2017-08-06T05:28:11.358Z,13.43
2017-08-06T05:29:11.397Z,13.47
2017-08-06T05:30:11.389Z,13.49
2017-08-06T05:31:11.322Z,13.53
2017-08-06T05:32:11.326Z,13.57
2017-08-06T05:33:11.321Z,13.57
2017-08-06T05:34:11.345Z,13.61
2017-08-06T05:35:11.347Z,13.59
2017-08-06T05:36:11.347Z,13.62
2017-08-06T05:37:11.353Z,13.65
2017-08-06T05:38:11.305Z,13.69
2017-08-06T05:39:11.337Z,13.72
2017-08-06T05:40:11.396Z,13.73
2017-08-06T05:41:11.360Z,13.76
2017-08-06T05:42:11.329Z,13.80
2017-08-06T05:43:11.368Z,13.88
2017-08-06T05:44:11.421Z,13.88
2017-08-06T05:45:11.372Z,13.91
2017-08-06T05:46:11.389Z,13.95
2017-08-06T05:47:11.334Z,13.96
2017-08-06T05:48:11.359Z,14.00
2017-08-06T05:49:11.365Z,14.03
2017-08-06T05:50:11.368Z,14.07
2017-08-06T05:51:11.369Z,14.10
2017-08-06T05:52:11.386Z,14.13
2017-08-06T05:53:11.414Z,14.15
2017-08-06T05:54:11.330Z,14.17
2017-08-06T05:55:11.336Z,14.21
2017-08-06T05:56:11.364Z,14.25
2017-08-06T05:57:11.391Z,14.29
2017-08-06T05:58:11.364Z,14.32
2017-08-06T05:59:11.363Z,14.39
2017-08-06T06:00:11.363Z,14.49
2017-08-06T06:01:11.367Z,14.53
2017-08-06T06:02:11.398Z,14.60
2017-08-06T06:03:11.381Z,14.64
2017-08-06T06:04:11.399Z,14.68
2017-08-06T06:05:11.343Z,14.66
2017-08-06T06:06:11.436Z,14.68
2017-08-06T06:07:11.382Z,14.68
2017-08-06T06:08:11.379Z,14.69
2017-08-06T06:09:11.370Z,14.69
2017-08-06T06:10:11.371Z,14.69
2017-08-06T06:11:11.369Z,14.75
2017-08-06T06:12:11.403Z,14.79
2017-08-06T06:13:11.342Z,14.82
2017-08-06T06:14:11.405Z,14.87
2017-08-06T06:15:11.343Z,14.94
2017-08-06T06:16:11.404Z,14.94
2017-08-06T06:17:11.348Z,14.95
2017-08-06T06:18:11.405Z,15.08
2017-08-06T06:19:11.348Z,15.18
2017-08-06T06:20:11.345Z,15.22
2017-08-06T06:21:11.405Z,15.22
2017-08-06T06:22:11.410Z,15.29
2017-08-06T06:23:11.420Z,15.35
2017-08-06T06:24:11.359Z,15.35
2017-08-06T06:25:11.452Z,15.33
2017-08-06T06:26:11.386Z,15.29
2017-08-06T06:27:11.361Z,15.28
2017-08-06T06:28:11.392Z,15.17
2017-08-06T06:29:11.396Z,15.03
2017-08-06T06:30:11.393Z,14.96
2017-08-06T06:31:11.387Z,14.94
2017-08-06T06:32:11.393Z,14.84
2017-08-06T06:33:11.381Z,14.79
2017-08-06T06:34:11.416Z,14.76
2017-08-06T06:35:11.355Z,14.75
2017-08-06T06:36:11.417Z,14.76
2017-08-06T06:37:11.414Z,14.76
2017-08-06T06:38:11.354Z,14.76
2017-08-06T06:39:11.384Z,14.75
2017-08-06T06:40:11.422Z,14.79
2017-08-06T06:41:11.359Z,14.89
2017-08-06T06:42:11.418Z,14.94
2017-08-06T06:43:11.444Z,14.96
2017-08-06T06:44:11.366Z,15.06
2017-08-06T06:45:11.439Z,15.18
2017-08-06T06:46:11.402Z,15.32
2017-08-06T06:47:11.432Z,15.44
2017-08-06T06:48:11.439Z,15.58
2017-08-06T06:49:11.436Z,15.73
2017-08-06T06:50:11.426Z,15.91
2017-08-06T06:51:11.405Z,15.95
2017-08-06T06:52:11.390Z,16.09
2017-08-06T06:53:11.445Z,16.24
2017-08-06T06:54:11.435Z,16.27
2017-08-06T06:55:11.397Z,16.32
2017-08-06T06:56:11.407Z,16.46
2017-08-06T06:57:11.462Z,16.51
2017-08-06T06:58:11.447Z,16.63
2017-08-06T06:59:11.450Z,16.84
2017-08-06T07:00:11.413Z,17.03
2017-08-06T07:01:11.405Z,17.08
2017-08-06T07:02:11.419Z,17.14
2017-08-06T07:03:11.399Z,17.21
2017-08-06T07:04:11.400Z,17.24
2017-08-06T07:05:11.434Z,17.10
2017-08-06T07:06:11.374Z,17.08
2017-08-06T07:07:11.371Z,17.06
2017-08-06T07:08:11.372Z,17.21
2017-08-06T07:09:11.432Z,17.36
2017-08-06T07:10:11.373Z,17.43
2017-08-06T07:11:11.404Z,17.40
2017-08-06T07:12:11.373Z,17.51
2017-08-06T07:13:11.380Z,17.57
2017-08-06T07:14:11.406Z,17.68
2017-08-06T07:15:11.439Z,17.85
2017-08-06T07:16:11.383Z,17.79
2017-08-06T07:17:11.440Z,17.68
2017-08-06T07:18:11.375Z,17.80
2017-08-06T07:19:11.412Z,17.61
2017-08-06T07:20:11.406Z,17.73
2017-08-06T07:21:11.378Z,17.79
2017-08-06T07:22:11.412Z,17.69
2017-08-06T07:23:11.429Z,17.40
2017-08-06T07:24:11.428Z,17.32
2017-08-06T07:25:11.421Z,17.31
2017-08-06T07:26:11.416Z,17.24
2017-08-06T07:27:11.415Z,17.24
2017-08-06T07:28:11.451Z,17.22
2017-08-06T07:29:11.463Z,17.22
2017-08-06T07:30:11.434Z,17.35
2017-08-06T07:31:11.419Z,17.36
2017-08-06T07:32:11.472Z,17.31
2017-08-06T07:33:11.495Z,17.18
2017-08-06T07:34:11.404Z,17.13
2017-08-06T07:35:11.435Z,17.39
2017-08-06T07:36:11.398Z,17.46
2017-08-06T07:37:11.436Z,17.43
2017-08-06T07:38:11.466Z,17.43
2017-08-06T07:39:11.399Z,17.42
2017-08-06T07:40:11.406Z,17.54
2017-08-06T07:41:11.407Z,17.58
2017-08-06T07:42:11.403Z,17.72
2017-08-06T07:43:11.420Z,17.95
2017-08-06T07:44:11.462Z,18.05
2017-08-06T07:45:11.491Z,18.13
2017-08-06T07:46:11.423Z,18.07
2017-08-06T07:47:11.466Z,18.06
2017-08-06T07:48:11.421Z,18.03
2017-08-06T07:49:11.427Z,18.23
2017-08-06T07:50:11.402Z,18.36
2017-08-06T07:51:11.402Z,18.57
2017-08-06T07:52:11.401Z,18.51
2017-08-06T07:53:11.473Z,18.46
2017-08-06T07:54:11.416Z,18.44
2017-08-06T07:55:11.445Z,18.62
2017-08-06T07:56:11.506Z,18.77
2017-08-06T07:57:11.444Z,18.95
2017-08-06T07:58:11.433Z,19.15
2017-08-06T07:59:11.412Z,19.16
2017-08-06T08:00:11.509Z,19.10
2017-08-06T08:01:11.470Z,19.06
2017-08-06T08:02:11.417Z,18.73
2017-08-06T08:03:11.413Z,18.72
2017-08-06T08:04:11.453Z,18.77
2017-08-06T08:05:11.449Z,18.69
2017-08-06T08:06:11.441Z,18.47
2017-08-06T08:07:11.512Z,18.12
2017-08-06T08:08:11.504Z,17.94
2017-08-06T08:09:11.439Z,17.99
2017-08-06T08:10:11.414Z,17.92
2017-08-06T08:11:11.420Z,18.05
2017-08-06T08:12:11.425Z,18.32
2017-08-06T08:13:11.429Z,18.43
2017-08-06T08:14:11.483Z,18.47
2017-08-06T08:15:11.494Z,18.44
2017-08-06T08:16:11.447Z,18.57
2017-08-06T08:17:11.508Z,18.46
2017-08-06T08:18:11.516Z,18.47
2017-08-06T08:19:11.484Z,18.46
2017-08-06T08:20:11.453Z,18.62
2017-08-06T08:21:11.518Z,18.83
2017-08-06T08:22:11.493Z,18.99
2017-08-06T08:23:11.430Z,19.19
2017-08-06T08:24:11.405Z,19.33
2017-08-06T08:25:11.449Z,19.28
2017-08-06T08:26:11.494Z,19.03
2017-08-06T08:27:11.428Z,18.80
2017-08-06T08:28:11.404Z,18.84
2017-08-06T08:29:11.451Z,18.75
2017-08-06T08:30:11.437Z,18.69
2017-08-06T08:31:11.383Z,18.40
2017-08-06T08:32:11.458Z,18.38
2017-08-06T08:33:11.464Z,18.34
2017-08-06T08:34:11.525Z,18.41
2017-08-06T08:35:11.528Z,18.58
2017-08-06T08:36:11.436Z,18.61
2017-08-06T08:37:11.461Z,18.70
2017-08-06T08:38:11.473Z,18.87
2017-08-06T08:39:11.464Z,18.95
2017-08-06T08:40:11.528Z,19.10
2017-08-06T08:41:11.458Z,19.08
2017-08-06T08:42:11.532Z,18.99
2017-08-06T08:43:11.426Z,19.02
2017-08-06T08:44:11.491Z,19.21
2017-08-06T08:45:11.495Z,19.44
2017-08-06T08:46:11.467Z,19.73
2017-08-06T08:47:11.432Z,19.87
2017-08-06T08:48:11.429Z,19.98
2017-08-06T08:49:11.429Z,20.07
2017-08-06T08:50:11.481Z,20.27
2017-08-06T08:51:11.468Z,20.53
2017-08-06T08:52:11.497Z,20.43
2017-08-06T08:53:11.435Z,19.94
2017-08-06T08:54:11.466Z,19.42
2017-08-06T08:55:11.431Z,18.95
2017-08-06T08:56:11.437Z,18.57
2017-08-06T08:57:11.508Z,18.32
2017-08-06T08:58:11.430Z,18.12
2017-08-06T08:59:11.464Z,18.02
2017-08-06T09:00:11.501Z,18.02
2017-08-06T09:01:11.468Z,17.96
2017-08-06T09:02:11.440Z,18.05
2017-08-06T09:03:11.537Z,18.14
2017-08-06T09:04:11.487Z,18.31
2017-08-06T09:05:11.588Z,18.36
2017-08-06T09:06:11.514Z,18.54
2017-08-06T09:07:11.458Z,18.66
2017-08-06T09:08:11.472Z,18.77
2017-08-06T09:09:11.482Z,18.86
2017-08-06T09:10:11.484Z,19.12
2017-08-06T09:11:11.520Z,19.43
2017-08-06T09:12:11.455Z,19.68
2017-08-06T09:13:11.507Z,19.88
2017-08-06T09:14:11.514Z,20.01
2017-08-06T09:15:11.448Z,20.28
2017-08-06T09:16:11.519Z,20.46
2017-08-06T09:17:11.453Z,20.54
2017-08-06T09:18:11.483Z,20.80
2017-08-06T09:19:11.452Z,20.65
2017-08-06T09:20:11.515Z,20.34
2017-08-06T09:21:11.484Z,20.20
2017-08-06T09:22:11.450Z,20.03
2017-08-06T09:23:11.476Z,19.77
2017-08-06T09:24:11.450Z,19.43
2017-08-06T09:25:11.440Z,19.39
2017-08-06T09:26:11.456Z,19.27
2017-08-06T09:27:11.461Z,19.03
2017-08-06T09:28:11.451Z,18.69
2017-08-06T09:29:11.425Z,18.65
2017-08-06T09:30:11.459Z,18.55
2017-08-06T09:31:11.399Z,18.59
2017-08-06T09:32:11.485Z,18.72
2017-08-06T09:33:11.497Z,19.03
2017-08-06T09:34:11.497Z,19.17
2017-08-06T09:35:11.466Z,19.02
2017-08-06T09:36:11.533Z,19.06
2017-08-06T09:37:11.561Z,19.03
2017-08-06T09:38:11.541Z,19.01
2017-08-06T09:39:11.612Z,19.08
2017-08-06T09:40:11.497Z,19.20
2017-08-06T09:42:11.659Z,19.17
2017-08-06T09:43:11.546Z,19.38
2017-08-06T09:44:11.515Z,19.38
2017-08-06T09:45:11.601Z,19.43
2017-08-06T09:46:11.473Z,19.65
2017-08-06T09:47:11.569Z,19.73
2017-08-06T09:48:11.533Z,19.77
2017-08-06T09:49:11.531Z,19.84
2017-08-06T09:50:11.551Z,19.58
2017-08-06T09:51:11.475Z,19.33
2017-08-06T09:52:11.572Z,18.97
2017-08-06T09:53:11.488Z,18.81
2017-08-06T09:54:11.508Z,18.64
2017-08-06T09:55:11.485Z,18.58
2017-08-06T09:56:11.480Z,18.87
2017-08-06T09:57:11.553Z,19.17
2017-08-06T09:58:11.512Z,19.49
2017-08-06T09:59:11.478Z,19.80
2017-08-06T10:00:11.512Z,20.02
2017-08-06T10:01:11.508Z,20.14
2017-08-06T10:02:11.505Z,20.09
2017-08-06T10:03:11.563Z,20.14
2017-08-06T10:04:11.578Z,20.17
2017-08-06T10:05:11.517Z,20.06
2017-08-06T10:06:11.526Z,19.72
2017-08-06T10:07:11.511Z,19.76
2017-08-06T10:08:11.582Z,20.01
2017-08-06T10:09:11.519Z,20.21
2017-08-06T10:10:11.493Z,20.34
2017-08-06T10:11:11.568Z,20.30
2017-08-06T10:12:11.549Z,20.20
2017-08-06T10:13:11.482Z,20.12
2017-08-06T10:14:11.638Z,19.99
2017-08-06T10:15:11.493Z,20.01
2017-08-06T10:16:11.463Z,19.83
2017-08-06T10:17:11.540Z,19.88
2017-08-06T10:18:11.501Z,20.03
2017-08-06T10:19:11.493Z,20.03
2017-08-06T10:20:11.470Z,19.64
2017-08-06T10:21:11.470Z,19.21
2017-08-06T10:22:11.513Z,18.91
2017-08-06T10:23:11.497Z,18.66
2017-08-06T10:24:11.534Z,18.64
2017-08-06T10:25:11.560Z,18.90
2017-08-06T10:26:11.522Z,19.16
2017-08-06T10:27:11.555Z,19.49
2017-08-06T10:28:11.499Z,19.85
2017-08-06T10:29:11.570Z,20.18
2017-08-06T10:30:11.532Z,20.45
2017-08-06T10:31:11.534Z,20.56
2017-08-06T10:32:11.506Z,20.84
2017-08-06T10:33:11.524Z,20.86
2017-08-06T10:34:11.530Z,20.99
2017-08-06T10:35:11.511Z,21.25
2017-08-06T10:36:11.521Z,21.39
2017-08-06T10:37:11.496Z,20.91
2017-08-06T10:38:11.502Z,20.68
2017-08-06T10:39:11.486Z,20.94
2017-08-06T10:40:11.567Z,21.09
2017-08-06T10:41:11.540Z,21.32
2017-08-06T10:42:11.507Z,21.54
2017-08-06T10:43:11.504Z,21.67
2017-08-06T10:44:11.572Z,21.79
2017-08-06T10:45:11.546Z,21.56
2017-08-06T10:46:11.566Z,21.13
2017-08-06T10:47:11.636Z,20.52
2017-08-06T10:48:11.604Z,20.10
2017-08-06T10:49:11.543Z,19.98
2017-08-06T10:50:11.578Z,20.07
2017-08-06T10:51:11.604Z,20.05
2017-08-06T10:52:11.549Z,20.01
2017-08-06T10:53:11.585Z,19.88
2017-08-06T10:54:11.545Z,19.58
2017-08-06T10:55:11.575Z,19.40
2017-08-06T10:56:11.518Z,19.62
2017-08-06T10:57:11.592Z,19.83
2017-08-06T10:58:11.516Z,19.98
2017-08-06T10:59:11.612Z,20.27
2017-08-06T11:00:11.574Z,20.47
2017-08-06T11:01:11.560Z,20.47
2017-08-06T11:02:11.590Z,20.54
2017-08-06T11:03:11.620Z,20.75
2017-08-06T11:04:11.556Z,21.16
2017-08-06T11:05:11.590Z,20.98
2017-08-06T11:06:11.521Z,21.18
2017-08-06T11:07:11.562Z,21.39
2017-08-06T11:08:11.619Z,21.31
2017-08-06T11:09:11.525Z,20.88
2017-08-06T11:10:11.612Z,20.65
2017-08-06T11:11:11.580Z,20.43
2017-08-06T11:12:11.618Z,20.21
2017-08-06T11:13:11.525Z,20.23
2017-08-06T11:14:11.598Z,20.28
2017-08-06T11:15:11.559Z,20.58
2017-08-06T11:16:11.582Z,20.88
2017-08-06T11:17:11.530Z,21.08
2017-08-06T11:18:11.567Z,21.29
2017-08-06T11:19:11.552Z,21.54
2017-08-06T11:20:11.527Z,21.36
2017-08-06T11:21:11.593Z,21.49
2017-08-06T11:22:11.550Z,21.45
2017-08-06T11:23:11.623Z,21.10
2017-08-06T11:24:11.531Z,21.21
2017-08-06T11:25:11.571Z,21.24
2017-08-06T11:26:11.628Z,21.02
2017-08-06T11:27:11.573Z,20.86
2017-08-06T11:28:11.537Z,20.53
2017-08-06T11:29:11.623Z,20.42
2017-08-06T11:30:11.546Z,20.38
2017-08-06T11:31:11.542Z,20.28
2017-08-06T11:32:11.536Z,20.24
2017-08-06T11:33:11.545Z,20.07
2017-08-06T11:34:11.609Z,20.05
2017-08-06T11:35:11.574Z,19.88
2017-08-06T11:36:11.602Z,19.74
2017-08-06T11:37:11.576Z,19.55
2017-08-06T11:38:11.573Z,19.55
2017-08-06T11:39:11.635Z,19.44
2017-08-06T11:40:11.572Z,19.39
2017-08-06T11:41:11.540Z,19.57
2017-08-06T11:42:11.548Z,19.90
2017-08-06T11:43:11.597Z,20.14
2017-08-06T11:44:11.546Z,20.45
2017-08-06T11:45:11.544Z,20.84
2017-08-06T11:46:11.617Z,21.28
2017-08-06T11:47:11.620Z,21.54
2017-08-06T11:48:11.630Z,21.87
2017-08-06T11:49:11.603Z,22.24
2017-08-06T11:50:11.589Z,22.46
2017-08-06T11:51:11.579Z,22.38
2017-08-06T11:52:11.587Z,21.86
2017-08-06T11:53:11.547Z,21.27
2017-08-06T11:54:11.647Z,20.65
2017-08-06T11:55:11.647Z,20.27
2017-08-06T11:56:11.638Z,20.09
2017-08-06T11:57:11.641Z,20.03
2017-08-06T11:58:11.620Z,20.25
2017-08-06T11:59:11.607Z,20.65
2017-08-06T12:00:11.592Z,21.04
2017-08-06T12:01:11.554Z,21.32
2017-08-06T12:02:11.581Z,21.54
2017-08-06T12:03:11.650Z,21.87
2017-08-06T12:04:11.589Z,22.01
2017-08-06T12:05:11.634Z,22.25
2017-08-06T12:06:11.612Z,22.41
2017-08-06T12:07:11.625Z,22.70
2017-08-06T12:08:11.615Z,22.52
2017-08-06T12:09:11.658Z,21.93
2017-08-06T12:10:11.561Z,21.71
2017-08-06T12:11:11.560Z,21.78
2017-08-06T12:12:11.748Z,21.78
2017-08-06T12:13:11.561Z,21.83
2017-08-06T12:14:11.626Z,21.61
2017-08-06T12:15:11.603Z,21.51
2017-08-06T12:16:11.653Z,21.54
2017-08-06T12:17:11.569Z,21.68
2017-08-06T12:18:11.597Z,21.94
2017-08-06T12:19:11.568Z,22.49
2017-08-06T12:20:11.601Z,22.82
2017-08-06T12:21:11.619Z,22.72
2017-08-06T12:22:11.596Z,22.49
2017-08-06T12:23:11.596Z,22.13
2017-08-06T12:24:11.601Z,21.94
2017-08-06T12:25:11.662Z,22.08
2017-08-06T12:26:11.624Z,22.34
2017-08-06T12:27:11.605Z,22.56
2017-08-06T12:28:11.597Z,22.94
2017-08-06T12:29:11.594Z,22.83
2017-08-06T12:30:11.665Z,22.65
2017-08-06T12:31:11.610Z,22.56
2017-08-06T12:32:11.601Z,22.32
2017-08-06T12:33:11.607Z,22.06
2017-08-06T12:34:11.572Z,21.78
2017-08-06T12:35:11.651Z,21.80
2017-08-06T12:36:11.643Z,21.71
2017-08-06T12:37:11.640Z,21.73
2017-08-06T12:38:11.761Z,21.58
2017-08-06T12:39:11.668Z,21.31
2017-08-06T12:40:11.611Z,21.22
2017-08-06T12:41:11.639Z,21.18
2017-08-06T12:42:11.668Z,21.25
2017-08-06T12:43:11.704Z,21.47
2017-08-06T12:44:11.675Z,21.49
2017-08-06T12:45:11.603Z,21.51
2017-08-06T12:46:11.589Z,21.64
2017-08-06T12:47:11.676Z,21.50
2017-08-06T12:48:11.616Z,21.46
2017-08-06T12:49:11.607Z,21.21
2017-08-06T12:50:11.647Z,21.32
2017-08-06T12:51:11.670Z,21.57
2017-08-06T12:52:11.593Z,21.73
2017-08-06T12:53:11.670Z,21.71